Parla, Spain
Current Conditions -  °F | °C
As of 1:00 PM on Friday 28 Nov 2014 (Local Time) from LEGT Reporting Station
Moderate Rain Moderate Rain  
Wind Chill: 52°   Ceiling: 3000
Heat Index: 52°   Visibility: 4mi
Dew Point: 48°   Wind: 9mph
Humidity: 88%   Direction: 150°SSE
Pressure: 29.12"   Gusts: NA
Location:  40.24°N, 3.77°W
Report Text: LEGT 281200Z 15008KT 7000 RA SCT020 BKN030 11/09 Q0986
Loading
Personal Weather Stations






























Interactive Weather Map New forecast layout! Learn more

10-Day Weather Forecast

Advertisements
Track Severe Weather on mobile